sensor_id;sensor_type;location;lat;lon;timestamp;P1;durP1;ratioP1;P2;durP2;ratioP2
5805;SDS011;2929;50.810;8.342;2022-09-21T00:01:02;3.47;;;2.60;;
5805;SDS011;2929;50.810;8.342;2022-09-21T00:03:30;3.50;;;2.90;;
5805;SDS011;2929;50.810;8.342;2022-09-21T00:06:00;10.43;;;2.97;;
5805;SDS011;2929;50.810;8.342;2022-09-21T00:08:28;3.37;;;3.00;;
5805;SDS011;2929;50.810;8.342;2022-09-21T00:10:56;3.90;;;2.77;;
5805;SDS011;2929;50.810;8.342;2022-09-21T00:13:24;3.73;;;2.13;;
5805;SDS011;2929;50.810;8.342;2022-09-21T00:15:52;3.73;;;2.23;;
5805;SDS011;2929;50.810;8.342;2022-09-21T00:18:19;8.07;;;3.17;;
5805;SDS011;2929;50.810;8.342;2022-09-21T00:20:46;6.37;;;3.33;;
5805;SDS011;2929;50.810;8.342;2022-09-21T00:23:13;6.20;;;3.10;;
5805;SDS011;2929;50.810;8.342;2022-09-21T00:25:41;3.60;;;2.53;;
5805;SDS011;2929;50.810;8.342;2022-09-21T00:28:09;5.23;;;2.40;;
5805;SDS011;2929;50.810;8.342;2022-09-21T00:30:37;2.80;;;2.40;;
5805;SDS011;2929;50.810;8.342;2022-09-21T00:33:04;8.23;;;2.90;;
5805;SDS011;2929;50.810;8.342;2022-09-21T00:35:31;17.17;;;7.87;;
5805;SDS011;2929;50.810;8.342;2022-09-21T00:37:59;11.67;;;6.00;;
5805;SDS011;2929;50.810;8.342;2022-09-21T00:40:27;11.40;;;5.67;;
5805;SDS011;2929;50.810;8.342;2022-09-21T00:45:42;16.90;;;5.43;;
5805;SDS011;2929;50.810;8.342;2022-09-21T00:48:09;10.27;;;4.27;;
5805;SDS011;2929;50.810;8.342;2022-09-21T00:50:37;5.97;;;3.50;;
5805;SDS011;2929;50.810;8.342;2022-09-21T00:53:09;7.53;;;3.77;;
5805;SDS011;2929;50.810;8.342;2022-09-21T00:55:36;9.30;;;4.17;;
5805;SDS011;2929;50.810;8.342;2022-09-21T00:58:08;14.80;;;5.33;;
5805;SDS011;2929;50.810;8.342;2022-09-21T01:00:41;14.27;;;5.93;;
5805;SDS011;2929;50.810;8.342;2022-09-21T01:03:08;14.03;;;5.73;;
5805;SDS011;2929;50.810;8.342;2022-09-21T01:05:37;15.30;;;6.43;;
5805;SDS011;2929;50.810;8.342;2022-09-21T01:08:05;9.20;;;4.57;;
5805;SDS011;2929;50.810;8.342;2022-09-21T01:10:37;12.50;;;4.70;;
5805;SDS011;2929;50.810;8.342;2022-09-21T01:13:20;13.40;;;4.50;;
5805;SDS011;2929;50.810;8.342;2022-09-21T01:16:00;6.23;;;3.23;;
5805;SDS011;2929;50.810;8.342;2022-09-21T01:18:34;8.30;;;3.50;;
5805;SDS011;2929;50.810;8.342;2022-09-21T01:21:11;8.87;;;4.47;;
5805;SDS011;2929;50.810;8.342;2022-09-21T01:27:05;8.37;;;4.13;;
5805;SDS011;2929;50.810;8.342;2022-09-21T01:29:54;7.27;;;3.70;;
5805;SDS011;2929;50.810;8.342;2022-09-21T01:32:27;15.73;;;6.80;;
5805;SDS011;2929;50.810;8.342;2022-09-21T01:34:59;15.30;;;5.33;;
5805;SDS011;2929;50.810;8.342;2022-09-21T01:37:31;17.73;;;6.40;;
5805;SDS011;2929;50.810;8.342;2022-09-21T01:40:03;11.03;;;4.83;;
5805;SDS011;2929;50.810;8.342;2022-09-21T01:42:35;9.40;;;3.90;;
5805;SDS011;2929;50.810;8.342;2022-09-21T01:45:06;11.20;;;4.10;;
5805;SDS011;2929;50.810;8.342;2022-09-21T01:47:36;11.37;;;4.60;;
5805;SDS011;2929;50.810;8.342;2022-09-21T01:50:06;7.40;;;3.40;;
5805;SDS011;2929;50.810;8.342;2022-09-21T01:52:36;11.10;;;3.90;;
5805;SDS011;2929;50.810;8.342;2022-09-21T01:55:08;9.40;;;3.80;;
5805;SDS011;2929;50.810;8.342;2022-09-21T01:57:39;6.80;;;3.47;;
5805;SDS011;2929;50.810;8.342;2022-09-21T02:00:14;8.00;;;3.37;;
5805;SDS011;2929;50.810;8.342;2022-09-21T02:02:43;8.27;;;3.10;;
5805;SDS011;2929;50.810;8.342;2022-09-21T02:05:14;25.03;;;5.80;;
5805;SDS011;2929;50.810;8.342;2022-09-21T02:07:44;6.80;;;3.00;;
5805;SDS011;2929;50.810;8.342;2022-09-21T02:10:14;13.40;;;4.00;;
5805;SDS011;2929;50.810;8.342;2022-09-21T02:12:46;8.00;;;3.80;;
5805;SDS011;2929;50.810;8.342;2022-09-21T02:15:18;8.30;;;4.20;;
5805;SDS011;2929;50.810;8.342;2022-09-21T02:17:50;8.00;;;3.53;;
5805;SDS011;2929;50.810;8.342;2022-09-21T02:20:27;8.20;;;4.60;;
5805;SDS011;2929;50.810;8.342;2022-09-21T02:23:00;4.53;;;2.50;;
5805;SDS011;2929;50.810;8.342;2022-09-21T02:25:35;4.20;;;2.27;;
5805;SDS011;2929;50.810;8.342;2022-09-21T02:28:07;7.77;;;2.50;;
5805;SDS011;2929;50.810;8.342;2022-09-21T02:30:43;3.67;;;2.37;;
5805;SDS011;2929;50.810;8.342;2022-09-21T02:33:21;9.03;;;2.73;;
5805;SDS011;2929;50.810;8.342;2022-09-21T02:35:54;7.77;;;2.60;;
5805;SDS011;2929;50.810;8.342;2022-09-21T02:38:30;16.73;;;3.47;;
5805;SDS011;2929;50.810;8.342;2022-09-21T02:41:01;11.03;;;2.47;;
5805;SDS011;2929;50.810;8.342;2022-09-21T02:43:33;6.10;;;1.90;;
5805;SDS011;2929;50.810;8.342;2022-09-21T02:46:07;6.10;;;2.23;;
5805;SDS011;2929;50.810;8.342;2022-09-21T02:48:39;5.90;;;2.47;;
5805;SDS011;2929;50.810;8.342;2022-09-21T02:51:12;6.63;;;2.50;;
5805;SDS011;2929;50.810;8.342;2022-09-21T02:53:43;2.37;;;2.17;;
5805;SDS011;2929;50.810;8.342;2022-09-21T02:56:13;4.63;;;2.10;;
5805;SDS011;2929;50.810;8.342;2022-09-21T02:58:42;3.70;;;2.43;;
5805;SDS011;2929;50.810;8.342;2022-09-21T03:01:13;5.13;;;2.47;;
5805;SDS011;2929;50.810;8.342;2022-09-21T03:03:42;2.30;;;2.07;;
5805;SDS011;2929;50.810;8.342;2022-09-21T03:06:09;7.43;;;2.30;;
5805;SDS011;2929;50.810;8.342;2022-09-21T03:08:36;4.20;;;2.10;;
5805;SDS011;2929;50.810;8.342;2022-09-21T03:11:03;3.37;;;2.37;;
5805;SDS011;2929;50.810;8.342;2022-09-21T03:13:30;3.77;;;2.70;;
5805;SDS011;2929;50.810;8.342;2022-09-21T03:15:58;7.33;;;2.40;;
5805;SDS011;2929;50.810;8.342;2022-09-21T03:18:28;3.70;;;2.17;;
5805;SDS011;2929;50.810;8.342;2022-09-21T03:20:56;8.00;;;2.83;;
5805;SDS011;2929;50.810;8.342;2022-09-21T03:23:23;5.07;;;2.57;;
5805;SDS011;2929;50.810;8.342;2022-09-21T03:25:50;5.53;;;1.97;;
5805;SDS011;2929;50.810;8.342;2022-09-21T03:28:19;8.10;;;2.50;;
5805;SDS011;2929;50.810;8.342;2022-09-21T03:30:46;5.03;;;2.87;;
5805;SDS011;2929;50.810;8.342;2022-09-21T03:33:15;2.60;;;2.10;;
5805;SDS011;2929;50.810;8.342;2022-09-21T03:35:43;6.83;;;2.20;;
5805;SDS011;2929;50.810;8.342;2022-09-21T03:38:11;4.70;;;2.53;;
5805;SDS011;2929;50.810;8.342;2022-09-21T03:40:38;5.40;;;2.87;;
5805;SDS011;2929;50.810;8.342;2022-09-21T03:43:05;3.87;;;3.50;;
5805;SDS011;2929;50.810;8.342;2022-09-21T03:45:31;6.60;;;3.20;;
5805;SDS011;2929;50.810;8.342;2022-09-21T03:47:59;5.20;;;4.20;;
5805;SDS011;2929;50.810;8.342;2022-09-21T03:50:27;4.67;;;3.13;;
5805;SDS011;2929;50.810;8.342;2022-09-21T03:52:56;4.63;;;2.80;;
5805;SDS011;2929;50.810;8.342;2022-09-21T03:55:23;5.20;;;2.97;;
5805;SDS011;2929;50.810;8.342;2022-09-21T03:57:50;3.73;;;2.93;;
5805;SDS011;2929;50.810;8.342;2022-09-21T04:00:17;5.13;;;2.57;;
5805;SDS011;2929;50.810;8.342;2022-09-21T04:02:45;8.20;;;4.37;;
5805;SDS011;2929;50.810;8.342;2022-09-21T04:05:12;6.70;;;4.13;;
5805;SDS011;2929;50.810;8.342;2022-09-21T04:07:41;14.20;;;9.30;;
5805;SDS011;2929;50.810;8.342;2022-09-21T04:10:11;13.03;;;7.77;;
5805;SDS011;2929;50.810;8.342;2022-09-21T04:12:40;6.73;;;3.70;;
5805;SDS011;2929;50.810;8.342;2022-09-21T04:15:08;9.93;;;3.97;;
5805;SDS011;2929;50.810;8.342;2022-09-21T04:17:36;6.20;;;3.90;;
5805;SDS011;2929;50.810;8.342;2022-09-21T04:20:03;4.00;;;2.70;;
5805;SDS011;2929;50.810;8.342;2022-09-21T04:22:31;6.90;;;3.00;;
5805;SDS011;2929;50.810;8.342;2022-09-21T04:24:59;2.20;;;2.00;;
5805;SDS011;2929;50.810;8.342;2022-09-21T04:27:27;4.17;;;3.50;;
5805;SDS011;2929;50.810;8.342;2022-09-21T04:29:54;3.33;;;2.30;;
5805;SDS011;2929;50.810;8.342;2022-09-21T04:32:21;21.30;;;7.23;;
5805;SDS011;2929;50.810;8.342;2022-09-21T04:34:48;27.23;;;10.50;;
5805;SDS011;2929;50.810;8.342;2022-09-21T04:37:15;40.10;;;14.83;;
5805;SDS011;2929;50.810;8.342;2022-09-21T04:39:42;45.47;;;15.17;;
5805;SDS011;2929;50.810;8.342;2022-09-21T04:42:09;41.20;;;13.70;;
5805;SDS011;2929;50.810;8.342;2022-09-21T04:44:38;22.43;;;7.23;;
5805;SDS011;2929;50.810;8.342;2022-09-21T04:47:05;12.43;;;6.13;;
5805;SDS011;2929;50.810;8.342;2022-09-21T04:49:32;8.27;;;4.60;;
5805;SDS011;2929;50.810;8.342;2022-09-21T04:51:59;8.90;;;4.83;;
5805;SDS011;2929;50.810;8.342;2022-09-21T04:54:27;13.93;;;4.00;;
5805;SDS011;2929;50.810;8.342;2022-09-21T04:56:54;11.27;;;4.30;;
5805;SDS011;2929;50.810;8.342;2022-09-21T04:59:21;7.00;;;4.60;;
5805;SDS011;2929;50.810;8.342;2022-09-21T05:01:50;7.87;;;4.07;;
5805;SDS011;2929;50.810;8.342;2022-09-21T05:04:17;7.43;;;4.50;;
5805;SDS011;2929;50.810;8.342;2022-09-21T05:06:44;10.70;;;4.40;;
5805;SDS011;2929;50.810;8.342;2022-09-21T05:09:11;7.87;;;4.90;;
5805;SDS011;2929;50.810;8.342;2022-09-21T05:11:55;10.77;;;6.30;;
5805;SDS011;2929;50.810;8.342;2022-09-21T05:14:22;10.87;;;6.70;;
5805;SDS011;2929;50.810;8.342;2022-09-21T05:16:50;13.30;;;5.93;;
5805;SDS011;2929;50.810;8.342;2022-09-21T05:19:17;8.60;;;5.73;;
5805;SDS011;2929;50.810;8.342;2022-09-21T05:21:44;8.03;;;5.60;;
5805;SDS011;2929;50.810;8.342;2022-09-21T05:24:11;9.93;;;5.53;;
5805;SDS011;2929;50.810;8.342;2022-09-21T05:26:38;9.90;;;6.10;;
5805;SDS011;2929;50.810;8.342;2022-09-21T05:29:05;8.50;;;6.00;;
5805;SDS011;2929;50.810;8.342;2022-09-21T05:31:41;6.93;;;4.80;;
5805;SDS011;2929;50.810;8.342;2022-09-21T05:34:22;8.20;;;4.60;;
5805;SDS011;2929;50.810;8.342;2022-09-21T05:36:57;9.03;;;4.10;;
5805;SDS011;2929;50.810;8.342;2022-09-21T05:39:28;8.10;;;3.73;;
5805;SDS011;2929;50.810;8.342;2022-09-21T05:41:56;7.50;;;3.80;;
5805;SDS011;2929;50.810;8.342;2022-09-21T05:44:23;6.70;;;3.83;;
5805;SDS011;2929;50.810;8.342;2022-09-21T05:46:52;5.30;;;3.90;;
5805;SDS011;2929;50.810;8.342;2022-09-21T05:49:27;11.37;;;4.33;;
5805;SDS011;2929;50.810;8.342;2022-09-21T05:52:05;7.93;;;3.63;;
5805;SDS011;2929;50.810;8.342;2022-09-21T05:54:43;9.70;;;4.33;;
5805;SDS011;2929;50.810;8.342;2022-09-21T05:57:18;8.40;;;4.40;;
5805;SDS011;2929;50.810;8.342;2022-09-21T05:59:56;9.43;;;4.57;;
5805;SDS011;2929;50.810;8.342;2022-09-21T06:02:47;6.80;;;5.27;;
5805;SDS011;2929;50.810;8.342;2022-09-21T06:05:22;11.80;;;4.80;;
5805;SDS011;2929;50.810;8.342;2022-09-21T06:07:49;7.40;;;4.97;;
5805;SDS011;2929;50.810;8.342;2022-09-21T06:10:16;10.83;;;5.40;;
5805;SDS011;2929;50.810;8.342;2022-09-21T06:12:44;10.37;;;5.53;;
5805;SDS011;2929;50.810;8.342;2022-09-21T06:15:12;9.50;;;5.20;;
5805;SDS011;2929;50.810;8.342;2022-09-21T06:17:40;12.33;;;4.77;;
5805;SDS011;2929;50.810;8.342;2022-09-21T06:20:08;9.00;;;4.90;;
5805;SDS011;2929;50.810;8.342;2022-09-21T06:22:37;9.60;;;6.53;;
5805;SDS011;2929;50.810;8.342;2022-09-21T06:25:04;11.87;;;6.80;;
5805;SDS011;2929;50.810;8.342;2022-09-21T06:27:32;9.33;;;6.83;;
5805;SDS011;2929;50.810;8.342;2022-09-21T06:29:59;11.40;;;6.63;;
5805;SDS011;2929;50.810;8.342;2022-09-21T06:32:26;15.40;;;6.30;;
5805;SDS011;2929;50.810;8.342;2022-09-21T06:34:53;10.83;;;6.83;;
5805;SDS011;2929;50.810;8.342;2022-09-21T06:37:20;15.13;;;5.60;;
5805;SDS011;2929;50.810;8.342;2022-09-21T06:39:48;9.27;;;5.80;;
5805;SDS011;2929;50.810;8.342;2022-09-21T06:42:15;7.20;;;5.50;;
5805;SDS011;2929;50.810;8.342;2022-09-21T06:44:42;11.80;;;6.00;;
5805;SDS011;2929;50.810;8.342;2022-09-21T06:47:09;7.70;;;5.50;;
5805;SDS011;2929;50.810;8.342;2022-09-21T06:49:36;9.40;;;5.87;;
5805;SDS011;2929;50.810;8.342;2022-09-21T06:52:03;9.60;;;5.07;;
5805;SDS011;2929;50.810;8.342;2022-09-21T06:54:30;7.30;;;4.93;;
5805;SDS011;2929;50.810;8.342;2022-09-21T06:56:59;8.87;;;5.40;;
5805;SDS011;2929;50.810;8.342;2022-09-21T06:59:26;6.20;;;4.93;;
5805;SDS011;2929;50.810;8.342;2022-09-21T07:01:53;64.90;;;28.93;;
5805;SDS011;2929;50.810;8.342;2022-09-21T07:04:22;30.47;;;17.30;;
5805;SDS011;2929;50.810;8.342;2022-09-21T07:06:49;19.47;;;11.47;;
5805;SDS011;2929;50.810;8.342;2022-09-21T07:09:16;10.27;;;6.20;;
5805;SDS011;2929;50.810;8.342;2022-09-21T07:11:44;6.40;;;3.93;;
5805;SDS011;2929;50.810;8.342;2022-09-21T07:14:12;15.83;;;5.17;;
5805;SDS011;2929;50.810;8.342;2022-09-21T07:16:39;5.87;;;4.17;;
5805;SDS011;2929;50.810;8.342;2022-09-21T07:19:07;6.07;;;4.30;;
5805;SDS011;2929;50.810;8.342;2022-09-21T07:21:34;7.40;;;4.70;;
5805;SDS011;2929;50.810;8.342;2022-09-21T07:24:01;8.33;;;5.50;;
5805;SDS011;2929;50.810;8.342;2022-09-21T07:26:28;6.60;;;5.00;;
5805;SDS011;2929;50.810;8.342;2022-09-21T07:28:55;12.40;;;4.80;;
5805;SDS011;2929;50.810;8.342;2022-09-21T07:31:24;9.00;;;5.97;;
5805;SDS011;2929;50.810;8.342;2022-09-21T07:33:54;11.10;;;4.90;;
5805;SDS011;2929;50.810;8.342;2022-09-21T07:36:22;14.07;;;4.63;;
5805;SDS011;2929;50.810;8.342;2022-09-21T07:38:49;8.47;;;5.27;;
5805;SDS011;2929;50.810;8.342;2022-09-21T07:41:16;6.87;;;4.63;;
5805;SDS011;2929;50.810;8.342;2022-09-21T07:43:43;7.60;;;5.03;;
5805;SDS011;2929;50.810;8.342;2022-09-21T07:46:11;11.10;;;5.97;;
5805;SDS011;2929;50.810;8.342;2022-09-21T07:48:41;17.33;;;6.30;;
5805;SDS011;2929;50.810;8.342;2022-09-21T07:51:08;9.77;;;5.33;;
5805;SDS011;2929;50.810;8.342;2022-09-21T07:53:37;10.97;;;5.67;;
5805;SDS011;2929;50.810;8.342;2022-09-21T07:56:06;4.90;;;4.17;;
5805;SDS011;2929;50.810;8.342;2022-09-21T07:58:34;10.97;;;4.10;;
5805;SDS011;2929;50.810;8.342;2022-09-21T08:01:22;5.07;;;3.80;;
5805;SDS011;2929;50.810;8.342;2022-09-21T08:03:51;9.87;;;3.97;;
5805;SDS011;2929;50.810;8.342;2022-09-21T08:06:19;7.70;;;3.70;;
5805;SDS011;2929;50.810;8.342;2022-09-21T08:08:47;12.60;;;3.77;;
5805;SDS011;2929;50.810;8.342;2022-09-21T08:11:14;11.87;;;3.37;;
5805;SDS011;2929;50.810;8.342;2022-09-21T08:13:42;13.03;;;3.87;;
5805;SDS011;2929;50.810;8.342;2022-09-21T08:16:09;7.40;;;3.30;;
5805;SDS011;2929;50.810;8.342;2022-09-21T08:18:37;7.07;;;2.93;;
5805;SDS011;2929;50.810;8.342;2022-09-21T08:21:08;5.83;;;2.63;;
5805;SDS011;2929;50.810;8.342;2022-09-21T08:23:36;6.80;;;3.50;;
5805;SDS011;2929;50.810;8.342;2022-09-21T08:26:04;7.73;;;3.37;;
5805;SDS011;2929;50.810;8.342;2022-09-21T08:28:33;12.30;;;3.00;;
5805;SDS011;2929;50.810;8.342;2022-09-21T08:31:01;12.33;;;2.97;;
5805;SDS011;2929;50.810;8.342;2022-09-21T08:33:29;4.27;;;2.83;;
5805;SDS011;2929;50.810;8.342;2022-09-21T08:35:58;10.03;;;2.87;;
5805;SDS011;2929;50.810;8.342;2022-09-21T08:38:30;4.10;;;2.23;;
5805;SDS011;2929;50.810;8.342;2022-09-21T08:40:59;15.47;;;2.87;;
5805;SDS011;2929;50.810;8.342;2022-09-21T08:43:28;7.67;;;2.27;;
5805;SDS011;2929;50.810;8.342;2022-09-21T08:46:02;14.03;;;2.60;;
5805;SDS011;2929;50.810;8.342;2022-09-21T08:48:31;7.63;;;2.30;;
5805;SDS011;2929;50.810;8.342;2022-09-21T08:51:05;3.80;;;1.70;;
5805;SDS011;2929;50.810;8.342;2022-09-21T08:53:36;13.33;;;2.00;;
5805;SDS011;2929;50.810;8.342;2022-09-21T08:56:07;4.93;;;2.33;;
5805;SDS011;2929;50.810;8.342;2022-09-21T08:58:36;6.60;;;1.50;;
5805;SDS011;2929;50.810;8.342;2022-09-21T09:01:07;3.37;;;1.47;;
5805;SDS011;2929;50.810;8.342;2022-09-21T09:06:47;5.60;;;1.70;;
5805;SDS011;2929;50.810;8.342;2022-09-21T09:09:25;9.83;;;1.60;;
5805;SDS011;2929;50.810;8.342;2022-09-21T09:12:15;3.33;;;1.47;;
5805;SDS011;2929;50.810;8.342;2022-09-21T09:14:58;4.00;;;1.00;;
5805;SDS011;2929;50.810;8.342;2022-09-21T09:17:43;7.80;;;1.00;;
5805;SDS011;2929;50.810;8.342;2022-09-21T09:20:18;1.60;;;0.93;;
5805;SDS011;2929;50.810;8.342;2022-09-21T09:22:49;1.33;;;0.90;;
5805;SDS011;2929;50.810;8.342;2022-09-21T09:25:23;6.60;;;0.83;;
5805;SDS011;2929;50.810;8.342;2022-09-21T09:28:00;4.97;;;1.20;;
5805;SDS011;2929;50.810;8.342;2022-09-21T09:30:40;1.87;;;0.80;;
5805;SDS011;2929;50.810;8.342;2022-09-21T09:33:10;1.33;;;0.80;;
5805;SDS011;2929;50.810;8.342;2022-09-21T09:35:43;5.70;;;0.90;;
5805;SDS011;2929;50.810;8.342;2022-09-21T09:38:15;3.40;;;1.20;;
5805;SDS011;2929;50.810;8.342;2022-09-21T09:41:02;1.83;;;0.87;;
5805;SDS011;2929;50.810;8.342;2022-09-21T09:43:43;2.10;;;1.37;;
5805;SDS011;2929;50.810;8.342;2022-09-21T09:46:20;3.90;;;1.17;;
5805;SDS011;2929;50.810;8.342;2022-09-21T09:49:02;2.70;;;1.00;;
5805;SDS011;2929;50.810;8.342;2022-09-21T09:51:38;5.87;;;1.27;;
5805;SDS011;2929;50.810;8.342;2022-09-21T09:54:10;3.60;;;1.23;;
5805;SDS011;2929;50.810;8.342;2022-09-21T09:56:41;4.43;;;1.53;;
5805;SDS011;2929;50.810;8.342;2022-09-21T09:59:10;3.33;;;0.80;;
5805;SDS011;2929;50.810;8.342;2022-09-21T10:01:43;5.47;;;2.20;;
5805;SDS011;2929;50.810;8.342;2022-09-21T10:04:12;3.47;;;1.10;;
5805;SDS011;2929;50.810;8.342;2022-09-21T10:06:41;0.97;;;0.87;;
5805;SDS011;2929;50.810;8.342;2022-09-21T10:09:16;6.03;;;0.90;;
5805;SDS011;2929;50.810;8.342;2022-09-21T10:11:46;2.77;;;1.17;;
5805;SDS011;2929;50.810;8.342;2022-09-21T10:14:15;2.13;;;0.73;;
5805;SDS011;2929;50.810;8.342;2022-09-21T10:16:44;5.50;;;1.10;;
5805;SDS011;2929;50.810;8.342;2022-09-21T10:19:14;8.60;;;1.20;;
5805;SDS011;2929;50.810;8.342;2022-09-21T10:21:44;2.50;;;1.43;;
5805;SDS011;2929;50.810;8.342;2022-09-21T10:24:14;3.27;;;0.90;;
5805;SDS011;2929;50.810;8.342;2022-09-21T10:26:48;2.20;;;1.00;;
5805;SDS011;2929;50.810;8.342;2022-09-21T10:29:27;2.03;;;0.77;;
5805;SDS011;2929;50.810;8.342;2022-09-21T10:31:57;2.00;;;0.70;;
5805;SDS011;2929;50.810;8.342;2022-09-21T10:34:27;3.23;;;1.07;;
5805;SDS011;2929;50.810;8.342;2022-09-21T10:36:56;3.17;;;1.10;;
5805;SDS011;2929;50.810;8.342;2022-09-21T10:39:25;3.40;;;0.80;;
5805;SDS011;2929;50.810;8.342;2022-09-21T10:41:59;4.20;;;1.07;;
5805;SDS011;2929;50.810;8.342;2022-09-21T10:44:33;4.47;;;1.00;;
5805;SDS011;2929;50.810;8.342;2022-09-21T10:47:12;6.20;;;1.40;;
5805;SDS011;2929;50.810;8.342;2022-09-21T10:49:44;2.77;;;1.13;;
5805;SDS011;2929;50.810;8.342;2022-09-21T10:52:14;2.73;;;0.70;;
5805;SDS011;2929;50.810;8.342;2022-09-21T10:54:44;2.17;;;0.80;;
5805;SDS011;2929;50.810;8.342;2022-09-21T10:57:18;1.23;;;0.97;;
5805;SDS011;2929;50.810;8.342;2022-09-21T10:59:47;5.30;;;0.90;;
5805;SDS011;2929;50.810;8.342;2022-09-21T11:02:25;3.83;;;1.20;;
5805;SDS011;2929;50.810;8.342;2022-09-21T11:05:02;1.57;;;0.90;;
5805;SDS011;2929;50.810;8.342;2022-09-21T11:07:34;2.93;;;0.90;;
5805;SDS011;2929;50.810;8.342;2022-09-21T11:10:08;5.40;;;0.83;;
5805;SDS011;2929;50.810;8.342;2022-09-21T11:12:46;2.20;;;0.80;;
5805;SDS011;2929;50.810;8.342;2022-09-21T11:15:29;6.03;;;1.00;;
5805;SDS011;2929;50.810;8.342;2022-09-21T11:18:04;2.10;;;0.80;;
5805;SDS011;2929;50.810;8.342;2022-09-21T11:20:41;2.20;;;0.70;;
5805;SDS011;2929;50.810;8.342;2022-09-21T11:23:15;3.97;;;0.90;;
5805;SDS011;2929;50.810;8.342;2022-09-21T11:25:54;1.43;;;0.90;;
5805;SDS011;2929;50.810;8.342;2022-09-21T11:28:30;1.93;;;0.87;;
5805;SDS011;2929;50.810;8.342;2022-09-21T11:31:11;2.13;;;1.00;;
5805;SDS011;2929;50.810;8.342;2022-09-21T11:33:54;5.70;;;0.93;;
5805;SDS011;2929;50.810;8.342;2022-09-21T11:36:32;1.70;;;0.70;;
5805;SDS011;2929;50.810;8.342;2022-09-21T11:39:10;1.03;;;0.70;;
5805;SDS011;2929;50.810;8.342;2022-09-21T11:41:49;5.33;;;1.07;;
5805;SDS011;2929;50.810;8.342;2022-09-21T11:44:42;1.63;;;1.53;;
5805;SDS011;2929;50.810;8.342;2022-09-21T11:47:29;6.40;;;0.90;;
5805;SDS011;2929;50.810;8.342;2022-09-21T11:50:23;1.93;;;0.70;;
5805;SDS011;2929;50.810;8.342;2022-09-21T11:53:14;1.43;;;0.80;;
5805;SDS011;2929;50.810;8.342;2022-09-21T11:55:53;1.90;;;0.83;;
5805;SDS011;2929;50.810;8.342;2022-09-21T11:58:45;12.20;;;1.70;;
5805;SDS011;2929;50.810;8.342;2022-09-21T12:01:41;6.67;;;1.07;;
5805;SDS011;2929;50.810;8.342;2022-09-21T12:04:19;4.30;;;1.20;;
5805;SDS011;2929;50.810;8.342;2022-09-21T12:06:59;0.80;;;0.73;;
5805;SDS011;2929;50.810;8.342;2022-09-21T12:09:44;0.97;;;0.90;;
5805;SDS011;2929;50.810;8.342;2022-09-21T12:12:28;2.10;;;0.70;;
5805;SDS011;2929;50.810;8.342;2022-09-21T12:15:03;2.87;;;0.80;;
5805;SDS011;2929;50.810;8.342;2022-09-21T12:17:40;1.70;;;0.80;;
5805;SDS011;2929;50.810;8.342;2022-09-21T12:20:15;2.63;;;0.80;;
5805;SDS011;2929;50.810;8.342;2022-09-21T12:22:50;3.53;;;0.63;;
5805;SDS011;2929;50.810;8.342;2022-09-21T12:25:22;1.73;;;0.60;;
5805;SDS011;2929;50.810;8.342;2022-09-21T12:27:53;1.63;;;0.77;;
5805;SDS011;2929;50.810;8.342;2022-09-21T12:30:25;1.57;;;0.67;;
5805;SDS011;2929;50.810;8.342;2022-09-21T12:32:58;1.70;;;0.67;;
5805;SDS011;2929;50.810;8.342;2022-09-21T12:35:31;1.33;;;0.70;;
5805;SDS011;2929;50.810;8.342;2022-09-21T12:38:07;2.93;;;0.83;;
5805;SDS011;2929;50.810;8.342;2022-09-21T12:40:42;0.87;;;0.77;;
5805;SDS011;2929;50.810;8.342;2022-09-21T12:43:19;1.07;;;0.70;;
5805;SDS011;2929;50.810;8.342;2022-09-21T12:45:57;3.23;;;0.70;;
5805;SDS011;2929;50.810;8.342;2022-09-21T12:48:30;1.27;;;0.80;;
5805;SDS011;2929;50.810;8.342;2022-09-21T12:51:00;1.10;;;0.77;;
5805;SDS011;2929;50.810;8.342;2022-09-21T12:53:32;2.07;;;0.80;;
5805;SDS011;2929;50.810;8.342;2022-09-21T12:56:04;1.80;;;0.90;;
5805;SDS011;2929;50.810;8.342;2022-09-21T12:58:49;0.60;;;0.60;;
5805;SDS011;2929;50.810;8.342;2022-09-21T13:01:30;1.40;;;0.70;;
5805;SDS011;2929;50.810;8.342;2022-09-21T13:04:10;0.83;;;0.63;;
5805;SDS011;2929;50.810;8.342;2022-09-21T13:10:06;0.93;;;0.70;;
5805;SDS011;2929;50.810;8.342;2022-09-21T13:12:41;2.83;;;1.10;;
5805;SDS011;2929;50.810;8.342;2022-09-21T13:15:11;4.20;;;0.80;;
5805;SDS011;2929;50.810;8.342;2022-09-21T13:17:46;0.90;;;0.70;;
5805;SDS011;2929;50.810;8.342;2022-09-21T13:20:25;0.90;;;0.80;;
5805;SDS011;2929;50.810;8.342;2022-09-21T13:22:57;1.70;;;0.90;;
5805;SDS011;2929;50.810;8.342;2022-09-21T13:25:25;0.87;;;0.80;;
5805;SDS011;2929;50.810;8.342;2022-09-21T13:27:58;1.43;;;0.73;;
5805;SDS011;2929;50.810;8.342;2022-09-21T13:30:41;2.77;;;0.80;;
5805;SDS011;2929;50.810;8.342;2022-09-21T13:36:09;0.50;;;0.50;;
5805;SDS011;2929;50.810;8.342;2022-09-21T13:38:55;2.10;;;0.80;;
5805;SDS011;2929;50.810;8.342;2022-09-21T13:41:29;3.27;;;0.90;;
5805;SDS011;2929;50.810;8.342;2022-09-21T13:44:01;1.00;;;0.60;;
5805;SDS011;2929;50.810;8.342;2022-09-21T13:55:19;1.60;;;0.90;;
5805;SDS011;2929;50.810;8.342;2022-09-21T13:57:50;2.97;;;0.90;;
5805;SDS011;2929;50.810;8.342;2022-09-21T14:00:27;1.47;;;0.83;;
5805;SDS011;2929;50.810;8.342;2022-09-21T14:02:59;1.53;;;1.00;;
5805;SDS011;2929;50.810;8.342;2022-09-21T14:05:30;2.00;;;1.20;;
5805;SDS011;2929;50.810;8.342;2022-09-21T14:08:02;1.73;;;1.20;;
5805;SDS011;2929;50.810;8.342;2022-09-21T14:10:32;1.50;;;0.80;;
5805;SDS011;2929;50.810;8.342;2022-09-21T14:13:03;0.90;;;0.80;;
5805;SDS011;2929;50.810;8.342;2022-09-21T14:15:48;1.03;;;0.83;;
5805;SDS011;2929;50.810;8.342;2022-09-21T14:18:18;1.20;;;0.90;;
5805;SDS011;2929;50.810;8.342;2022-09-21T14:26:54;4.30;;;1.10;;
5805;SDS011;2929;50.810;8.342;2022-09-21T14:29:27;0.80;;;0.80;;
5805;SDS011;2929;50.810;8.342;2022-09-21T14:31:59;2.10;;;0.70;;
5805;SDS011;2929;50.810;8.342;2022-09-21T14:34:34;0.83;;;0.70;;
5805;SDS011;2929;50.810;8.342;2022-09-21T14:37:09;2.50;;;1.30;;
5805;SDS011;2929;50.810;8.342;2022-09-21T14:39:47;2.70;;;0.80;;
5805;SDS011;2929;50.810;8.342;2022-09-21T14:42:17;1.03;;;0.80;;
5805;SDS011;2929;50.810;8.342;2022-09-21T14:44:47;3.93;;;0.90;;
5805;SDS011;2929;50.810;8.342;2022-09-21T14:47:20;1.23;;;0.70;;
5805;SDS011;2929;50.810;8.342;2022-09-21T14:52:54;6.83;;;0.80;;
5805;SDS011;2929;50.810;8.342;2022-09-21T14:56:03;1.37;;;0.70;;
5805;SDS011;2929;50.810;8.342;2022-09-21T14:58:57;1.23;;;0.70;;
5805;SDS011;2929;50.810;8.342;2022-09-21T15:01:37;1.63;;;0.77;;
5805;SDS011;2929;50.810;8.342;2022-09-21T15:04:19;3.30;;;0.70;;
5805;SDS011;2929;50.810;8.342;2022-09-21T15:06:57;4.20;;;0.70;;
5805;SDS011;2929;50.810;8.342;2022-09-21T15:09:59;1.57;;;1.00;;
5805;SDS011;2929;50.810;8.342;2022-09-21T15:12:58;0.90;;;0.80;;
5805;SDS011;2929;50.810;8.342;2022-09-21T15:15:34;3.70;;;0.80;;
5805;SDS011;2929;50.810;8.342;2022-09-21T15:18:13;2.40;;;0.73;;
5805;SDS011;2929;50.810;8.342;2022-09-21T15:20:49;1.67;;;0.70;;
5805;SDS011;2929;50.810;8.342;2022-09-21T15:23:24;0.63;;;0.60;;
5805;SDS011;2929;50.810;8.342;2022-09-21T15:25:52;2.70;;;0.70;;
5805;SDS011;2929;50.810;8.342;2022-09-21T15:28:25;0.70;;;0.60;;
5805;SDS011;2929;50.810;8.342;2022-09-21T15:31:00;1.07;;;0.80;;
5805;SDS011;2929;50.810;8.342;2022-09-21T15:33:28;1.10;;;0.70;;
5805;SDS011;2929;50.810;8.342;2022-09-21T15:35:59;2.73;;;0.90;;
5805;SDS011;2929;50.810;8.342;2022-09-21T15:38:27;1.23;;;0.67;;
5805;SDS011;2929;50.810;8.342;2022-09-21T15:40:56;1.50;;;0.80;;
5805;SDS011;2929;50.810;8.342;2022-09-21T15:43:24;1.33;;;0.70;;
5805;SDS011;2929;50.810;8.342;2022-09-21T15:45:52;4.07;;;0.80;;
5805;SDS011;2929;50.810;8.342;2022-09-21T15:48:22;1.80;;;1.10;;
5805;SDS011;2929;50.810;8.342;2022-09-21T15:50:51;1.07;;;0.80;;
5805;SDS011;2929;50.810;8.342;2022-09-21T15:53:23;1.07;;;0.60;;
5805;SDS011;2929;50.810;8.342;2022-09-21T15:55:53;1.10;;;0.60;;
5805;SDS011;2929;50.810;8.342;2022-09-21T15:58:26;0.67;;;0.67;;
5805;SDS011;2929;50.810;8.342;2022-09-21T16:00:59;1.17;;;0.93;;
5805;SDS011;2929;50.810;8.342;2022-09-21T16:03:27;1.40;;;0.73;;
5805;SDS011;2929;50.810;8.342;2022-09-21T16:05:55;1.50;;;0.60;;
5805;SDS011;2929;50.810;8.342;2022-09-21T16:08:30;3.80;;;0.90;;
5805;SDS011;2929;50.810;8.342;2022-09-21T16:11:15;2.40;;;0.70;;
5805;SDS011;2929;50.810;8.342;2022-09-21T16:13:45;2.30;;;0.70;;
5805;SDS011;2929;50.810;8.342;2022-09-21T16:16:31;1.67;;;0.90;;